sensor_id;sensor_type;location;lat;lon;timestamp;pressure;altitude;pressure_sealevel;temperature;humidity
58092;BME280;43896;48.178;11.578;2023-05-25T00:01:29;96150.25;;;12.92;56.38
58092;BME280;43896;48.178;11.578;2023-05-25T00:03:54;96140.03;;;12.81;56.50
58092;BME280;43896;48.178;11.578;2023-05-25T00:06:22;96124.84;;;12.50;56.63
58092;BME280;43896;48.178;11.578;2023-05-25T00:08:50;96104.41;;;12.60;56.49
58092;BME280;43896;48.178;11.578;2023-05-25T00:11:19;96136.59;;;13.05;55.79
58092;BME280;43896;48.178;11.578;2023-05-25T00:13:47;96134.09;;;12.95;55.87
58092;BME280;43896;48.178;11.578;2023-05-25T00:16:13;96094.66;;;12.28;56.96
58092;BME280;43896;48.178;11.578;2023-05-25T00:18:40;96106.31;;;12.09;57.59
58092;BME280;43896;48.178;11.578;2023-05-25T00:21:07;96151.31;;;12.24;58.34
58092;BME280;43896;48.178;11.578;2023-05-25T00:23:32;96147.13;;;12.97;56.23
58092;BME280;43896;48.178;11.578;2023-05-25T00:25:58;96103.25;;;12.79;55.18
58092;BME280;43896;48.178;11.578;2023-05-25T00:28:23;96145.63;;;12.86;56.35
58092;BME280;43896;48.178;11.578;2023-05-25T00:30:49;96155.22;;;13.36;55.49
58092;BME280;43896;48.178;11.578;2023-05-25T00:33:15;96098.94;;;13.11;54.90
58092;BME280;43896;48.178;11.578;2023-05-25T00:35:43;96086.25;;;12.49;56.60
58092;BME280;43896;48.178;11.578;2023-05-25T00:38:13;96159.00;;;13.17;56.62
58092;BME280;43896;48.178;11.578;2023-05-25T00:40:39;96130.00;;;12.84;56.87
58092;BME280;43896;48.178;11.578;2023-05-25T00:43:06;96087.22;;;12.81;56.40
58092;BME280;43896;48.178;11.578;2023-05-25T00:45:32;96121.88;;;13.10;56.23
58092;BME280;43896;48.178;11.578;2023-05-25T00:47:57;96080.66;;;12.68;56.80
58092;BME280;43896;48.178;11.578;2023-05-25T00:50:36;96128.16;;;12.85;56.83
58092;BME280;43896;48.178;11.578;2023-05-25T00:53:03;96082.78;;;12.73;56.85
58092;BME280;43896;48.178;11.578;2023-05-25T00:55:28;96134.75;;;12.72;57.94
58092;BME280;43896;48.178;11.578;2023-05-25T00:57:56;96063.81;;;12.28;57.95
58092;BME280;43896;48.178;11.578;2023-05-25T01:00:25;96073.09;;;12.65;57.39
58092;BME280;43896;48.178;11.578;2023-05-25T01:02:51;96095.94;;;12.24;58.86
58092;BME280;43896;48.178;11.578;2023-05-25T01:05:22;96121.06;;;12.61;59.18
58092;BME280;43896;48.178;11.578;2023-05-25T01:07:51;96137.88;;;12.60;58.75
58092;BME280;43896;48.178;11.578;2023-05-25T01:10:21;96083.78;;;12.47;58.23
58092;BME280;43896;48.178;11.578;2023-05-25T01:12:49;96073.22;;;12.39;58.27
58092;BME280;43896;48.178;11.578;2023-05-25T01:15:15;96116.94;;;13.07;56.75
58092;BME280;43896;48.178;11.578;2023-05-25T01:17:41;96135.09;;;13.02;57.05
58092;BME280;43896;48.178;11.578;2023-05-25T01:20:08;96136.72;;;13.11;57.15
58092;BME280;43896;48.178;11.578;2023-05-25T01:22:44;96133.13;;;12.88;57.82
58092;BME280;43896;48.178;11.578;2023-05-25T01:25:15;96145.31;;;12.64;58.97
58092;BME280;43896;48.178;11.578;2023-05-25T01:27:51;96125.31;;;12.45;59.83
58092;BME280;43896;48.178;11.578;2023-05-25T01:30:18;96137.25;;;12.74;59.10
58092;BME280;43896;48.178;11.578;2023-05-25T01:32:47;96112.81;;;12.80;58.66
58092;BME280;43896;48.178;11.578;2023-05-25T01:35:13;96097.78;;;12.89;57.98
58092;BME280;43896;48.178;11.578;2023-05-25T01:37:44;96113.81;;;12.79;58.45
58092;BME280;43896;48.178;11.578;2023-05-25T01:40:11;96068.09;;;12.79;58.55
58092;BME280;43896;48.178;11.578;2023-05-25T01:42:36;96137.91;;;12.84;59.40
58092;BME280;43896;48.178;11.578;2023-05-25T01:45:02;96097.78;;;12.48;59.99
58092;BME280;43896;48.178;11.578;2023-05-25T01:50:11;96118.75;;;13.07;59.64
58092;BME280;43896;48.178;11.578;2023-05-25T01:52:44;96138.88;;;13.16;58.63
58092;BME280;43896;48.178;11.578;2023-05-25T01:55:17;96126.69;;;13.15;59.29
58092;BME280;43896;48.178;11.578;2023-05-25T01:57:49;96151.06;;;13.25;59.39
58092;BME280;43896;48.178;11.578;2023-05-25T02:00:15;96147.63;;;13.33;59.21
58092;BME280;43896;48.178;11.578;2023-05-25T02:02:43;96145.97;;;12.91;60.42
58092;BME280;43896;48.178;11.578;2023-05-25T02:05:09;96143.66;;;12.96;60.68
58092;BME280;43896;48.178;11.578;2023-05-25T02:07:36;96134.28;;;13.02;61.10
58092;BME280;43896;48.178;11.578;2023-05-25T02:10:02;96133.41;;;13.01;61.70
58092;BME280;43896;48.178;11.578;2023-05-25T02:12:27;96107.88;;;12.93;61.77
58092;BME280;43896;48.178;11.578;2023-05-25T02:14:52;96143.47;;;13.39;61.32
58092;BME280;43896;48.178;11.578;2023-05-25T02:17:17;96121.22;;;13.33;61.31
58092;BME280;43896;48.178;11.578;2023-05-25T02:19:44;96118.09;;;13.05;62.32
58092;BME280;43896;48.178;11.578;2023-05-25T02:22:09;96071.88;;;12.92;62.78
58092;BME280;43896;48.178;11.578;2023-05-25T02:24:34;96125.44;;;12.27;65.78
58092;BME280;43896;48.178;11.578;2023-05-25T02:27:02;96106.72;;;12.55;65.05
58092;BME280;43896;48.178;11.578;2023-05-25T02:29:27;96139.00;;;12.41;66.82
58092;BME280;43896;48.178;11.578;2023-05-25T02:31:53;96136.72;;;12.54;66.52
58092;BME280;43896;48.178;11.578;2023-05-25T02:34:18;96131.78;;;12.59;66.47
58092;BME280;43896;48.178;11.578;2023-05-25T02:36:43;96131.63;;;12.69;67.30
58092;BME280;43896;48.178;11.578;2023-05-25T02:39:09;96116.09;;;12.49;69.09
58092;BME280;43896;48.178;11.578;2023-05-25T02:41:36;96115.13;;;11.91;71.98
58092;BME280;43896;48.178;11.578;2023-05-25T02:44:01;96076.63;;;11.98;71.50
58092;BME280;43896;48.178;11.578;2023-05-25T02:46:26;96119.91;;;12.63;70.43
58092;BME280;43896;48.178;11.578;2023-05-25T02:48:52;96131.78;;;12.75;70.78
58092;BME280;43896;48.178;11.578;2023-05-25T02:51:17;96119.25;;;13.02;70.49
58092;BME280;43896;48.178;11.578;2023-05-25T02:53:42;96114.56;;;12.30;73.30
58092;BME280;43896;48.178;11.578;2023-05-25T02:56:08;96109.22;;;11.97;75.62
58092;BME280;43896;48.178;11.578;2023-05-25T02:58:35;96106.25;;;11.92;76.23
58092;BME280;43896;48.178;11.578;2023-05-25T03:01:01;96091.19;;;11.76;76.56
58092;BME280;43896;48.178;11.578;2023-05-25T03:03:27;96102.81;;;12.08;75.81
58092;BME280;43896;48.178;11.578;2023-05-25T03:05:55;96114.28;;;12.42;75.29
58092;BME280;43896;48.178;11.578;2023-05-25T03:08:21;96125.44;;;12.27;76.40
58092;BME280;43896;48.178;11.578;2023-05-25T03:10:47;96037.41;;;12.12;75.04
58092;BME280;43896;48.178;11.578;2023-05-25T03:13:12;96044.66;;;12.01;75.31
58092;BME280;43896;48.178;11.578;2023-05-25T03:15:38;96066.94;;;12.24;74.67
58092;BME280;43896;48.178;11.578;2023-05-25T03:18:05;96088.66;;;12.09;75.29
58092;BME280;43896;48.178;11.578;2023-05-25T03:20:30;96103.00;;;12.15;75.79
58092;BME280;43896;48.178;11.578;2023-05-25T03:22:57;96115.59;;;12.46;75.39
58092;BME280;43896;48.178;11.578;2023-05-25T03:25:22;96132.44;;;12.61;74.57
58092;BME280;43896;48.178;11.578;2023-05-25T03:27:51;96088.50;;;12.11;75.24
58092;BME280;43896;48.178;11.578;2023-05-25T03:30:17;96140.84;;;12.48;75.13
58092;BME280;43896;48.178;11.578;2023-05-25T03:32:43;96122.22;;;12.50;73.69
58092;BME280;43896;48.178;11.578;2023-05-25T03:35:08;96121.19;;;12.34;74.84
58092;BME280;43896;48.178;11.578;2023-05-25T03:37:34;96148.47;;;12.84;73.67
58092;BME280;43896;48.178;11.578;2023-05-25T03:39:59;96124.66;;;12.43;74.50
58092;BME280;43896;48.178;11.578;2023-05-25T03:42:25;96111.75;;;12.24;75.33
58092;BME280;43896;48.178;11.578;2023-05-25T03:44:50;96069.69;;;11.97;74.50
58092;BME280;43896;48.178;11.578;2023-05-25T03:47:15;96080.63;;;12.27;73.65
58092;BME280;43896;48.178;11.578;2023-05-25T03:49:40;96137.22;;;12.66;73.54
58092;BME280;43896;48.178;11.578;2023-05-25T03:52:06;96159.81;;;13.01;71.88
58092;BME280;43896;48.178;11.578;2023-05-25T03:54:31;96136.06;;;13.01;71.66
58092;BME280;43896;48.178;11.578;2023-05-25T03:56:57;96094.13;;;13.06;71.30
58092;BME280;43896;48.178;11.578;2023-05-25T03:59:26;96110.81;;;12.82;71.60
58092;BME280;43896;48.178;11.578;2023-05-25T04:01:51;96074.69;;;12.25;72.74
58092;BME280;43896;48.178;11.578;2023-05-25T04:04:16;96155.03;;;12.64;74.06
58092;BME280;43896;48.178;11.578;2023-05-25T04:06:42;96090.63;;;11.99;74.01
58092;BME280;43896;48.178;11.578;2023-05-25T04:09:10;96110.88;;;12.07;74.70
58092;BME280;43896;48.178;11.578;2023-05-25T04:11:36;96160.06;;;12.24;75.03
58092;BME280;43896;48.178;11.578;2023-05-25T04:14:01;96112.59;;;12.24;74.76
58092;BME280;43896;48.178;11.578;2023-05-25T04:16:27;96094.44;;;12.13;74.17
58092;BME280;43896;48.178;11.578;2023-05-25T04:18:53;96123.50;;;12.46;74.75
58092;BME280;43896;48.178;11.578;2023-05-25T04:21:18;96114.13;;;12.43;73.79
58092;BME280;43896;48.178;11.578;2023-05-25T04:23:44;96116.28;;;12.64;73.01
58092;BME280;43896;48.178;11.578;2023-05-25T04:26:09;96102.00;;;12.08;74.54
58092;BME280;43896;48.178;11.578;2023-05-25T04:28:35;96168.06;;;12.82;73.96
58092;BME280;43896;48.178;11.578;2023-05-25T04:31:07;96083.59;;;12.24;74.01
58092;BME280;43896;48.178;11.578;2023-05-25T04:33:35;96159.28;;;12.56;74.22
58092;BME280;43896;48.178;11.578;2023-05-25T04:36:05;96112.63;;;12.41;74.61
58092;BME280;43896;48.178;11.578;2023-05-25T04:38:31;96160.81;;;12.75;73.68
58092;BME280;43896;48.178;11.578;2023-05-25T04:40:57;96168.41;;;12.70;74.55
58092;BME280;43896;48.178;11.578;2023-05-25T04:43:23;96156.69;;;12.98;72.80
58092;BME280;43896;48.178;11.578;2023-05-25T04:45:51;96164.22;;;12.51;75.04
58092;BME280;43896;48.178;11.578;2023-05-25T04:48:17;96165.59;;;12.80;74.10
58092;BME280;43896;48.178;11.578;2023-05-25T04:50:42;96152.84;;;12.34;75.20
58092;BME280;43896;48.178;11.578;2023-05-25T04:53:08;96166.38;;;12.40;75.62
58092;BME280;43896;48.178;11.578;2023-05-25T04:55:33;96157.00;;;12.70;73.99
58092;BME280;43896;48.178;11.578;2023-05-25T04:57:59;96166.03;;;12.34;75.53
58092;BME280;43896;48.178;11.578;2023-05-25T05:00:25;96174.34;;;12.81;74.23
58092;BME280;43896;48.178;11.578;2023-05-25T05:02:50;96171.03;;;12.79;73.76
58092;BME280;43896;48.178;11.578;2023-05-25T05:05:16;96181.28;;;12.82;73.70
58092;BME280;43896;48.178;11.578;2023-05-25T05:07:42;96177.34;;;13.19;72.47
58092;BME280;43896;48.178;11.578;2023-05-25T05:10:08;96171.72;;;13.05;72.33
58092;BME280;43896;48.178;11.578;2023-05-25T05:12:35;96190.38;;;13.04;72.71
58092;BME280;43896;48.178;11.578;2023-05-25T05:15:01;96196.13;;;12.99;73.16
58092;BME280;43896;48.178;11.578;2023-05-25T05:17:26;96169.41;;;12.78;72.62
58092;BME280;43896;48.178;11.578;2023-05-25T05:19:53;96193.16;;;13.02;73.05
58092;BME280;43896;48.178;11.578;2023-05-25T05:22:18;96164.44;;;13.07;72.35
58092;BME280;43896;48.178;11.578;2023-05-25T05:24:44;96158.13;;;12.43;74.16
58092;BME280;43896;48.178;11.578;2023-05-25T05:27:11;96165.19;;;12.34;74.48
58092;BME280;43896;48.178;11.578;2023-05-25T05:29:38;96182.84;;;12.42;75.47
58092;BME280;43896;48.178;11.578;2023-05-25T05:32:06;96191.03;;;13.14;73.52
58092;BME280;43896;48.178;11.578;2023-05-25T05:34:32;96183.94;;;13.31;72.40
58092;BME280;43896;48.178;11.578;2023-05-25T05:36:58;96195.50;;;13.46;71.99
58092;BME280;43896;48.178;11.578;2023-05-25T05:39:26;96189.84;;;13.17;71.77
58092;BME280;43896;48.178;11.578;2023-05-25T05:41:52;96205.34;;;12.70;73.74
58092;BME280;43896;48.178;11.578;2023-05-25T05:44:19;96210.00;;;13.01;73.79
58092;BME280;43896;48.178;11.578;2023-05-25T05:46:45;96196.66;;;12.94;73.88
58092;BME280;43896;48.178;11.578;2023-05-25T05:49:10;96213.19;;;13.38;72.68
58092;BME280;43896;48.178;11.578;2023-05-25T05:51:36;96188.72;;;12.86;73.28
58092;BME280;43896;48.178;11.578;2023-05-25T05:54:01;96214.63;;;13.07;73.46
58092;BME280;43896;48.178;11.578;2023-05-25T05:56:26;96179.13;;;12.85;74.02
58092;BME280;43896;48.178;11.578;2023-05-25T05:58:52;96147.72;;;12.41;73.91
58092;BME280;43896;48.178;11.578;2023-05-25T06:01:18;96210.31;;;13.06;73.23
58092;BME280;43896;48.178;11.578;2023-05-25T06:03:44;96206.38;;;13.27;72.76
58092;BME280;43896;48.178;11.578;2023-05-25T06:06:10;96201.44;;;13.16;72.82
58092;BME280;43896;48.178;11.578;2023-05-25T06:08:35;96208.69;;;12.97;73.24
58092;BME280;43896;48.178;11.578;2023-05-25T06:11:00;96177.16;;;13.04;73.19
58092;BME280;43896;48.178;11.578;2023-05-25T06:13:26;96203.22;;;13.23;72.83
58092;BME280;43896;48.178;11.578;2023-05-25T06:15:51;96221.53;;;13.17;73.76
58092;BME280;43896;48.178;11.578;2023-05-25T06:18:17;96199.09;;;12.96;73.75
58092;BME280;43896;48.178;11.578;2023-05-25T06:20:42;96210.50;;;13.46;72.86
58092;BME280;43896;48.178;11.578;2023-05-25T06:23:08;96200.25;;;13.67;71.26
58092;BME280;43896;48.178;11.578;2023-05-25T06:25:35;96218.63;;;13.44;71.89
58092;BME280;43896;48.178;11.578;2023-05-25T06:28:00;96225.84;;;13.26;73.07
58092;BME280;43896;48.178;11.578;2023-05-25T06:30:26;96220.91;;;13.23;72.78
58092;BME280;43896;48.178;11.578;2023-05-25T06:32:51;96227.22;;;13.46;72.22
58092;BME280;43896;48.178;11.578;2023-05-25T06:35:16;96156.53;;;12.99;71.87
58092;BME280;43896;48.178;11.578;2023-05-25T06:37:47;96177.16;;;13.45;71.09
58092;BME280;43896;48.178;11.578;2023-05-25T06:40:14;96191.03;;;13.14;72.80
58092;BME280;43896;48.178;11.578;2023-05-25T06:42:40;96230.13;;;13.76;71.96
58092;BME280;43896;48.178;11.578;2023-05-25T06:45:06;96234.47;;;13.44;72.36
58092;BME280;43896;48.178;11.578;2023-05-25T06:47:31;96208.38;;;13.08;73.27
58092;BME280;43896;48.178;11.578;2023-05-25T06:49:57;96206.34;;;12.86;73.87
58092;BME280;43896;48.178;11.578;2023-05-25T06:52:22;96185.69;;;12.56;73.42
58092;BME280;43896;48.178;11.578;2023-05-25T06:54:48;96223.50;;;12.65;74.55
58092;BME280;43896;48.178;11.578;2023-05-25T06:57:13;96243.66;;;12.99;74.15
58092;BME280;43896;48.178;11.578;2023-05-25T06:59:38;96238.09;;;13.19;73.42
58092;BME280;43896;48.178;11.578;2023-05-25T07:02:04;96185.09;;;13.04;71.89
58092;BME280;43896;48.178;11.578;2023-05-25T07:04:29;96162.59;;;12.67;72.95
58092;BME280;43896;48.178;11.578;2023-05-25T07:06:55;96217.59;;;13.21;72.10
58092;BME280;43896;48.178;11.578;2023-05-25T07:09:20;96211.16;;;13.07;72.21
58092;BME280;43896;48.178;11.578;2023-05-25T07:11:46;96227.31;;;12.95;72.29
58092;BME280;43896;48.178;11.578;2023-05-25T07:14:11;96251.63;;;13.40;70.90
58092;BME280;43896;48.178;11.578;2023-05-25T07:16:37;96249.16;;;13.63;70.09
58092;BME280;43896;48.178;11.578;2023-05-25T07:19:02;96236.75;;;13.64;68.75
58092;BME280;43896;48.178;11.578;2023-05-25T07:21:30;96254.91;;;13.26;71.09
58092;BME280;43896;48.178;11.578;2023-05-25T07:23:57;96236.41;;;13.09;70.23
58092;BME280;43896;48.178;11.578;2023-05-25T07:26:22;96244.84;;;13.05;71.14
58092;BME280;43896;48.178;11.578;2023-05-25T07:28:49;96256.88;;;13.16;71.84
58092;BME280;43896;48.178;11.578;2023-05-25T07:31:15;96240.84;;;12.92;72.75
58092;BME280;43896;48.178;11.578;2023-05-25T07:33:42;96258.19;;;13.11;72.80
58092;BME280;43896;48.178;11.578;2023-05-25T07:36:07;96252.91;;;13.11;72.91
58092;BME280;43896;48.178;11.578;2023-05-25T07:38:33;96258.91;;;13.38;72.33
58092;BME280;43896;48.178;11.578;2023-05-25T07:40:59;96252.28;;;13.26;72.37
58092;BME280;43896;48.178;11.578;2023-05-25T07:43:24;96258.66;;;12.90;73.16
58092;BME280;43896;48.178;11.578;2023-05-25T07:45:50;96248.13;;;13.23;72.48
58092;BME280;43896;48.178;11.578;2023-05-25T07:48:15;96239.03;;;13.09;72.26
58092;BME280;43896;48.178;11.578;2023-05-25T07:50:40;96218.09;;;13.08;72.33
58092;BME280;43896;48.178;11.578;2023-05-25T07:53:06;96275.22;;;13.66;71.89
58092;BME280;43896;48.178;11.578;2023-05-25T07:55:31;96276.91;;;13.43;71.74
58092;BME280;43896;48.178;11.578;2023-05-25T07:57:56;96270.81;;;13.34;72.35
58092;BME280;43896;48.178;11.578;2023-05-25T08:00:22;96266.78;;;13.30;72.23
58092;BME280;43896;48.178;11.578;2023-05-25T08:02:47;96266.84;;;13.38;72.33
58092;BME280;43896;48.178;11.578;2023-05-25T08:05:13;96274.75;;;13.38;72.30
58092;BME280;43896;48.178;11.578;2023-05-25T08:07:39;96276.41;;;13.56;71.54
58092;BME280;43896;48.178;11.578;2023-05-25T08:10:05;96282.69;;;13.46;72.38
58092;BME280;43896;48.178;11.578;2023-05-25T08:12:31;96276.75;;;13.36;72.24
58092;BME280;43896;48.178;11.578;2023-05-25T08:14:56;96291.59;;;13.54;72.10
58092;BME280;43896;48.178;11.578;2023-05-25T08:17:21;96297.88;;;13.61;71.99
58092;BME280;43896;48.178;11.578;2023-05-25T08:19:47;96296.56;;;13.57;71.47
58092;BME280;43896;48.178;11.578;2023-05-25T08:22:12;96268.13;;;13.42;71.47
58092;BME280;43896;48.178;11.578;2023-05-25T08:24:38;96298.69;;;13.78;71.03
58092;BME280;43896;48.178;11.578;2023-05-25T08:27:03;96285.66;;;13.68;71.60
58092;BME280;43896;48.178;11.578;2023-05-25T08:29:28;96279.53;;;13.51;71.21
58092;BME280;43896;48.178;11.578;2023-05-25T08:31:55;96289.09;;;13.85;70.79
58092;BME280;43896;48.178;11.578;2023-05-25T08:34:20;96266.31;;;13.84;70.28
58092;BME280;43896;48.178;11.578;2023-05-25T08:36:45;96285.97;;;13.65;71.44
58092;BME280;43896;48.178;11.578;2023-05-25T08:39:11;96278.56;;;13.52;71.76
58092;BME280;43896;48.178;11.578;2023-05-25T08:41:41;96265.19;;;13.54;71.12
58092;BME280;43896;48.178;11.578;2023-05-25T08:44:07;96268.47;;;13.56;71.37
58092;BME280;43896;48.178;11.578;2023-05-25T08:46:33;96304.13;;;13.93;71.08
58092;BME280;43896;48.178;11.578;2023-05-25T08:49:09;96312.72;;;13.86;71.20
58092;BME280;43896;48.178;11.578;2023-05-25T08:54:12;96313.00;;;14.16;70.95
58092;BME280;43896;48.178;11.578;2023-05-25T08:57:02;96314.50;;;14.19;70.42
58092;BME280;43896;48.178;11.578;2023-05-25T08:59:48;96272.09;;;13.87;69.68
58092;BME280;43896;48.178;11.578;2023-05-25T09:05:08;96246.31;;;13.81;69.90
58092;BME280;43896;48.178;11.578;2023-05-25T09:07:34;96325.00;;;14.52;69.37
58092;BME280;43896;48.178;11.578;2023-05-25T09:10:00;96326.47;;;14.54;69.20
58092;BME280;43896;48.178;11.578;2023-05-25T09:12:28;96323.22;;;14.44;69.69
58092;BME280;43896;48.178;11.578;2023-05-25T09:14:56;96331.16;;;14.36;70.71
58092;BME280;43896;48.178;11.578;2023-05-25T09:17:21;96324.31;;;14.58;68.93
58092;BME280;43896;48.178;11.578;2023-05-25T09:19:46;96313.72;;;14.66;68.91
58092;BME280;43896;48.178;11.578;2023-05-25T09:22:12;96312.72;;;14.03;70.25
58092;BME280;43896;48.178;11.578;2023-05-25T09:24:37;96310.72;;;14.05;70.71
58092;BME280;43896;48.178;11.578;2023-05-25T09:27:06;96322.03;;;14.47;69.30
58092;BME280;43896;48.178;11.578;2023-05-25T09:29:32;96338.31;;;14.75;69.60
58092;BME280;43896;48.178;11.578;2023-05-25T09:31:57;96272.09;;;14.43;69.58
58092;BME280;43896;48.178;11.578;2023-05-25T09:34:22;96341.22;;;14.96;67.64
58092;BME280;43896;48.178;11.578;2023-05-25T09:36:48;96299.41;;;14.84;67.06
58092;BME280;43896;48.178;11.578;2023-05-25T09:39:13;96324.84;;;14.45;68.58
58092;BME280;43896;48.178;11.578;2023-05-25T09:41:41;96354.28;;;14.50;69.32
58092;BME280;43896;48.178;11.578;2023-05-25T09:44:07;96321.31;;;14.13;70.00
58092;BME280;43896;48.178;11.578;2023-05-25T09:46:33;96333.41;;;14.55;69.59
58092;BME280;43896;48.178;11.578;2023-05-25T09:49:05;96329.81;;;14.40;69.72
58092;BME280;43896;48.178;11.578;2023-05-25T09:51:32;96350.34;;;14.38;69.43
58092;BME280;43896;48.178;11.578;2023-05-25T09:54:02;96343.69;;;14.42;69.31
58092;BME280;43896;48.178;11.578;2023-05-25T09:56:30;96356.44;;;14.47;70.05
58092;BME280;43896;48.178;11.578;2023-05-25T09:58:56;96335.91;;;14.49;70.20
58092;BME280;43896;48.178;11.578;2023-05-25T10:01:22;96351.63;;;14.67;69.88
58092;BME280;43896;48.178;11.578;2023-05-25T10:03:48;96324.25;;;14.82;68.89
58092;BME280;43896;48.178;11.578;2023-05-25T10:06:15;96341.97;;;14.74;69.56
58092;BME280;43896;48.178;11.578;2023-05-25T10:08:44;96361.78;;;14.86;69.25
58092;BME280;43896;48.178;11.578;2023-05-25T10:11:14;96351.63;;;14.67;68.94
58092;BME280;43896;48.178;11.578;2023-05-25T10:13:39;96356.13;;;14.97;69.01
58092;BME280;43896;48.178;11.578;2023-05-25T10:16:07;96331.09;;;14.60;69.06
58092;BME280;43896;48.178;11.578;2023-05-25T10:18:35;96306.47;;;14.52;69.60
58092;BME280;43896;48.178;11.578;2023-05-25T10:21:03;96304.63;;;14.60;69.11
58092;BME280;43896;48.178;11.578;2023-05-25T10:23:34;96308.00;;;14.38;69.67
58092;BME280;43896;48.178;11.578;2023-05-25T10:26:02;96288.25;;;14.57;68.69
58092;BME280;43896;48.178;11.578;2023-05-25T10:28:37;96349.81;;;15.30;68.24
58092;BME280;43896;48.178;11.578;2023-05-25T10:31:04;96348.72;;;15.16;68.59
58092;BME280;43896;48.178;11.578;2023-05-25T10:33:30;96349.00;;;15.29;68.25
58092;BME280;43896;48.178;11.578;2023-05-25T10:35:56;96306.91;;;15.03;68.28
58092;BME280;43896;48.178;11.578;2023-05-25T10:38:24;96305.16;;;15.42;67.74
58092;BME280;43896;48.178;11.578;2023-05-25T10:40:52;96331.16;;;15.46;67.37
58092;BME280;43896;48.178;11.578;2023-05-25T10:43:19;96323.81;;;15.02;67.98
58092;BME280;43896;48.178;11.578;2023-05-25T10:45:46;96328.78;;;14.97;68.49
58092;BME280;43896;48.178;11.578;2023-05-25T10:48:13;96326.41;;;15.10;68.80
58092;BME280;43896;48.178;11.578;2023-05-25T10:50:39;96314.72;;;14.96;68.20
58092;BME280;43896;48.178;11.578;2023-05-25T10:53:06;96348.81;;;14.99;69.18
58092;BME280;43896;48.178;11.578;2023-05-25T10:58:26;96341.75;;;15.69;67.41
58092;BME280;43896;48.178;11.578;2023-05-25T11:00:58;96350.69;;;15.77;66.88
58092;BME280;43896;48.178;11.578;2023-05-25T11:06:11;96353.06;;;16.24;66.00
58092;BME280;43896;48.178;11.578;2023-05-25T11:08:53;96348.72;;;16.31;65.08
58092;BME280;43896;48.178;11.578;2023-05-25T11:11:19;96343.09;;;16.11;65.89
58092;BME280;43896;48.178;11.578;2023-05-25T11:13:46;96339.72;;;15.80;66.48
58092;BME280;43896;48.178;11.578;2023-05-25T11:16:29;96353.44;;;15.83;66.75
58092;BME280;43896;48.178;11.578;2023-05-25T11:19:00;96320.78;;;15.60;66.63
58092;BME280;43896;48.178;11.578;2023-05-25T11:23:59;96323.03;;;15.94;65.49
58092;BME280;43896;48.178;11.578;2023-05-25T11:26:31;96350.53;;;16.46;64.66
58092;BME280;43896;48.178;11.578;2023-05-25T11:28:58;96330.63;;;15.97;65.51
58092;BME280;43896;48.178;11.578;2023-05-25T11:31:30;96343.00;;;16.35;65.92
58092;BME280;43896;48.178;11.578;2023-05-25T11:33:57;96287.28;;;16.20;64.87
58092;BME280;43896;48.178;11.578;2023-05-25T11:36:23;96298.91;;;16.34;65.14
58092;BME280;43896;48.178;11.578;2023-05-25T11:38:50;96300.63;;;16.11;66.41
58092;BME280;43896;48.178;11.578;2023-05-25T11:41:20;96304.84;;;16.06;66.67
58092;BME280;43896;48.178;11.578;2023-05-25T11:43:47;96299.81;;;16.11;66.60
58092;BME280;43896;48.178;11.578;2023-05-25T11:46:14;96334.88;;;16.21;66.95
58092;BME280;43896;48.178;11.578;2023-05-25T11:48:53;96330.84;;;16.25;66.30
58092;BME280;43896;48.178;11.578;2023-05-25T11:51:26;96324.06;;;16.23;66.46
58092;BME280;43896;48.178;11.578;2023-05-25T11:53:52;96324.53;;;16.56;65.02
58092;BME280;43896;48.178;11.578;2023-05-25T11:56:18;96298.47;;;16.30;64.62
58092;BME280;43896;48.178;11.578;2023-05-25T11:58:44;96294.22;;;16.21;65.31
58092;BME280;43896;48.178;11.578;2023-05-25T12:01:22;96319.50;;;16.46;65.66
58092;BME280;43896;48.178;11.578;2023-05-25T12:03:50;96321.41;;;16.82;65.32
58092;BME280;43896;48.178;11.578;2023-05-25T12:06:33;96319.47;;;17.06;63.90
58092;BME280;43896;48.178;11.578;2023-05-25T12:09:00;96304.56;;;16.75;64.12
58092;BME280;43896;48.178;11.578;2023-05-25T12:11:31;96268.59;;;16.43;64.86
58092;BME280;43896;48.178;11.578;2023-05-25T12:13:58;96282.72;;;17.10;63.38
58092;BME280;43896;48.178;11.578;2023-05-25T12:16:24;96308.69;;;16.93;63.57
58092;BME280;43896;48.178;11.578;2023-05-25T12:18:50;96322.59;;;17.10;62.78
58092;BME280;43896;48.178;11.578;2023-05-25T12:21:17;96262.59;;;17.00;64.21
58092;BME280;43896;48.178;11.578;2023-05-25T12:23:43;96258.78;;;16.73;63.31
58092;BME280;43896;48.178;11.578;2023-05-25T12:26:10;96320.00;;;17.16;63.88
58092;BME280;43896;48.178;11.578;2023-05-25T12:28:36;96323.03;;;17.13;64.73
58092;BME280;43896;48.178;11.578;2023-05-25T12:31:24;96315.94;;;17.20;62.66
58092;BME280;43896;48.178;11.578;2023-05-25T12:36:38;96320.03;;;17.59;62.83
58092;BME280;43896;48.178;11.578;2023-05-25T12:39:04;96313.34;;;18.42;61.77
58092;BME280;43896;48.178;11.578;2023-05-25T12:41:30;96312.28;;;19.19;59.90
58092;BME280;43896;48.178;11.578;2023-05-25T12:43:56;96279.63;;;19.10;59.44
58092;BME280;43896;48.178;11.578;2023-05-25T12:46:23;96278.28;;;19.48;58.66
58092;BME280;43896;48.178;11.578;2023-05-25T12:48:49;96274.00;;;19.74;57.76
58092;BME280;43896;48.178;11.578;2023-05-25T12:51:14;96282.34;;;19.30;56.42
58092;BME280;43896;48.178;11.578;2023-05-25T12:53:48;96307.44;;;19.49;57.05
58092;BME280;43896;48.178;11.578;2023-05-25T12:56:13;96296.75;;;19.70;56.80
58092;BME280;43896;48.178;11.578;2023-05-25T12:58:38;96266.19;;;19.92;56.21
58092;BME280;43896;48.178;11.578;2023-05-25T13:01:07;96248.72;;;19.70;54.55
58092;BME280;43896;48.178;11.578;2023-05-25T13:03:32;96248.75;;;19.49;56.04
58092;BME280;43896;48.178;11.578;2023-05-25T13:05:59;96232.09;;;19.34;56.02
58092;BME280;43896;48.178;11.578;2023-05-25T13:08:26;96276.91;;;19.79;56.07